sensor_id;sensor_type;location;lat;lon;timestamp;P1;durP1;ratioP1;P2;durP2;ratioP2
64641;SDS011;59936;51.490;5.436;2023-03-20T00:03:41;15.40;;;8.40;;
64641;SDS011;59936;51.490;5.436;2023-03-20T00:06:12;13.80;;;8.90;;
64641;SDS011;59936;51.490;5.436;2023-03-20T00:08:40;13.50;;;8.80;;
64641;SDS011;59936;51.490;5.436;2023-03-20T00:11:10;20.90;;;9.40;;
64641;SDS011;59936;51.490;5.436;2023-03-20T00:13:52;19.50;;;10.40;;
64641;SDS011;59936;51.490;5.436;2023-03-20T00:16:20;14.60;;;9.40;;
64641;SDS011;59936;51.490;5.436;2023-03-20T00:18:48;14.50;;;9.70;;
64641;SDS011;59936;51.490;5.436;2023-03-20T00:21:17;17.90;;;8.70;;
64641;SDS011;59936;51.490;5.436;2023-03-20T00:23:44;13.80;;;7.40;;
64641;SDS011;59936;51.490;5.436;2023-03-20T00:26:13;13.40;;;8.60;;
64641;SDS011;59936;51.490;5.436;2023-03-20T00:28:41;15.90;;;8.20;;
64641;SDS011;59936;51.490;5.436;2023-03-20T00:31:27;12.80;;;8.30;;
64641;SDS011;59936;51.490;5.436;2023-03-20T00:33:56;15.00;;;8.60;;
64641;SDS011;59936;51.490;5.436;2023-03-20T00:36:24;21.80;;;9.80;;
64641;SDS011;59936;51.490;5.436;2023-03-20T00:38:49;15.70;;;9.40;;
64641;SDS011;59936;51.490;5.436;2023-03-20T00:44:01;12.50;;;7.80;;
64641;SDS011;59936;51.490;5.436;2023-03-20T00:46:31;18.30;;;9.00;;
64641;SDS011;59936;51.490;5.436;2023-03-20T00:49:02;15.60;;;8.90;;
64641;SDS011;59936;51.490;5.436;2023-03-20T00:51:28;13.30;;;7.50;;
64641;SDS011;59936;51.490;5.436;2023-03-20T00:53:54;15.80;;;8.20;;
64641;SDS011;59936;51.490;5.436;2023-03-20T00:58:46;15.45;;;8.15;;
64641;SDS011;59936;51.490;5.436;2023-03-20T01:01:12;13.70;;;8.10;;
64641;SDS011;59936;51.490;5.436;2023-03-20T01:03:38;17.20;;;8.40;;
64641;SDS011;59936;51.490;5.436;2023-03-20T01:08:30;18.10;;;9.30;;
64641;SDS011;59936;51.490;5.436;2023-03-20T01:10:56;20.90;;;11.00;;
64641;SDS011;59936;51.490;5.436;2023-03-20T01:15:54;24.80;;;11.60;;
64641;SDS011;59936;51.490;5.436;2023-03-20T01:18:22;23.80;;;11.70;;
64641;SDS011;59936;51.490;5.436;2023-03-20T01:20:49;21.00;;;11.40;;
64641;SDS011;59936;51.490;5.436;2023-03-20T01:23:15;22.50;;;11.20;;
64641;SDS011;59936;51.490;5.436;2023-03-20T01:25:41;15.80;;;10.20;;
64641;SDS011;59936;51.490;5.436;2023-03-20T01:28:18;17.20;;;10.30;;
64641;SDS011;59936;51.490;5.436;2023-03-20T01:30:46;19.90;;;10.30;;
64641;SDS011;59936;51.490;5.436;2023-03-20T01:33:13;17.10;;;9.60;;
64641;SDS011;59936;51.490;5.436;2023-03-20T01:35:43;21.00;;;11.10;;
64641;SDS011;59936;51.490;5.436;2023-03-20T01:38:11;19.70;;;10.40;;
64641;SDS011;59936;51.490;5.436;2023-03-20T01:40:50;18.40;;;10.30;;
64641;SDS011;59936;51.490;5.436;2023-03-20T01:43:22;19.80;;;10.80;;
64641;SDS011;59936;51.490;5.436;2023-03-20T01:46:03;20.30;;;9.80;;
64641;SDS011;59936;51.490;5.436;2023-03-20T01:51:17;31.00;;;12.60;;
64641;SDS011;59936;51.490;5.436;2023-03-20T01:53:44;22.10;;;11.20;;
64641;SDS011;59936;51.490;5.436;2023-03-20T01:56:14;25.50;;;12.30;;
64641;SDS011;59936;51.490;5.436;2023-03-20T01:58:43;18.40;;;12.10;;
64641;SDS011;59936;51.490;5.436;2023-03-20T02:01:12;21.90;;;12.40;;
64641;SDS011;59936;51.490;5.436;2023-03-20T02:03:39;20.00;;;11.00;;
64641;SDS011;59936;51.490;5.436;2023-03-20T02:06:08;24.00;;;12.90;;
64641;SDS011;59936;51.490;5.436;2023-03-20T02:08:36;27.40;;;12.60;;
64641;SDS011;59936;51.490;5.436;2023-03-20T02:11:08;25.80;;;12.50;;
64641;SDS011;59936;51.490;5.436;2023-03-20T02:13:35;23.90;;;12.70;;
64641;SDS011;59936;51.490;5.436;2023-03-20T02:16:05;18.20;;;11.00;;
64641;SDS011;59936;51.490;5.436;2023-03-20T02:18:35;22.70;;;12.60;;
64641;SDS011;59936;51.490;5.436;2023-03-20T02:26:40;19.60;;;11.80;;
64641;SDS011;59936;51.490;5.436;2023-03-20T02:32:20;20.10;;;11.70;;
64641;SDS011;59936;51.490;5.436;2023-03-20T02:37:47;18.40;;;11.10;;
64641;SDS011;59936;51.490;5.436;2023-03-20T02:40:37;22.10;;;11.40;;
64641;SDS011;59936;51.490;5.436;2023-03-20T02:43:10;22.70;;;12.40;;
64641;SDS011;59936;51.490;5.436;2023-03-20T02:57:22;22.90;;;12.50;;
64641;SDS011;59936;51.490;5.436;2023-03-20T03:02:49;25.20;;;13.50;;
64641;SDS011;59936;51.490;5.436;2023-03-20T03:05:39;24.30;;;12.20;;
64641;SDS011;59936;51.490;5.436;2023-03-20T03:08:11;24.90;;;13.50;;
64641;SDS011;59936;51.490;5.436;2023-03-20T03:10:43;23.30;;;12.90;;
64641;SDS011;59936;51.490;5.436;2023-03-20T03:13:18;31.70;;;13.10;;
64641;SDS011;59936;51.490;5.436;2023-03-20T03:15:49;25.00;;;13.50;;
64641;SDS011;59936;51.490;5.436;2023-03-20T03:18:19;23.80;;;12.30;;
64641;SDS011;59936;51.490;5.436;2023-03-20T03:20:49;19.50;;;11.60;;
64641;SDS011;59936;51.490;5.436;2023-03-20T03:26:05;23.40;;;12.10;;
64641;SDS011;59936;51.490;5.436;2023-03-20T03:28:35;21.20;;;12.00;;
64641;SDS011;59936;51.490;5.436;2023-03-20T03:31:05;19.90;;;10.70;;
64641;SDS011;59936;51.490;5.436;2023-03-20T03:33:35;19.70;;;11.00;;
64641;SDS011;59936;51.490;5.436;2023-03-20T03:38:38;17.00;;;10.20;;
64641;SDS011;59936;51.490;5.436;2023-03-20T03:44:08;18.60;;;10.50;;
64641;SDS011;59936;51.490;5.436;2023-03-20T03:46:56;21.30;;;11.50;;
64641;SDS011;59936;51.490;5.436;2023-03-20T03:49:30;17.60;;;10.50;;
64641;SDS011;59936;51.490;5.436;2023-03-20T03:52:02;20.50;;;11.80;;
64641;SDS011;59936;51.490;5.436;2023-03-20T03:54:34;20.90;;;11.50;;
64641;SDS011;59936;51.490;5.436;2023-03-20T03:57:09;18.80;;;10.50;;
64641;SDS011;59936;51.490;5.436;2023-03-20T03:59:38;18.90;;;10.60;;
64641;SDS011;59936;51.490;5.436;2023-03-20T04:02:08;26.90;;;12.40;;
64641;SDS011;59936;51.490;5.436;2023-03-20T04:04:35;18.80;;;11.40;;
64641;SDS011;59936;51.490;5.436;2023-03-20T04:07:06;22.10;;;10.90;;
64641;SDS011;59936;51.490;5.436;2023-03-20T04:09:32;14.90;;;8.70;;
64641;SDS011;59936;51.490;5.436;2023-03-20T04:11:58;21.80;;;11.60;;
64641;SDS011;59936;51.490;5.436;2023-03-20T04:16:50;26.05;;;9.60;;
64641;SDS011;59936;51.490;5.436;2023-03-20T04:19:16;15.40;;;10.10;;
64641;SDS011;59936;51.490;5.436;2023-03-20T04:21:41;21.90;;;11.40;;
64641;SDS011;59936;51.490;5.436;2023-03-20T04:24:07;21.00;;;11.80;;
64641;SDS011;59936;51.490;5.436;2023-03-20T04:26:33;23.10;;;12.20;;
64641;SDS011;59936;51.490;5.436;2023-03-20T04:28:59;19.50;;;11.00;;
64641;SDS011;59936;51.490;5.436;2023-03-20T04:31:25;24.00;;;11.40;;
64641;SDS011;59936;51.490;5.436;2023-03-20T04:33:51;20.50;;;11.00;;
64641;SDS011;59936;51.490;5.436;2023-03-20T04:36:17;22.00;;;10.90;;
64641;SDS011;59936;51.490;5.436;2023-03-20T04:38:42;20.90;;;11.50;;
64641;SDS011;59936;51.490;5.436;2023-03-20T04:41:08;21.80;;;10.10;;
64641;SDS011;59936;51.490;5.436;2023-03-20T04:43:34;14.70;;;9.80;;
64641;SDS011;59936;51.490;5.436;2023-03-20T04:46:00;21.40;;;12.60;;
64641;SDS011;59936;51.490;5.436;2023-03-20T04:48:26;21.90;;;11.50;;
64641;SDS011;59936;51.490;5.436;2023-03-20T04:50:52;21.00;;;10.60;;
64641;SDS011;59936;51.490;5.436;2023-03-20T04:53:18;22.40;;;12.10;;
64641;SDS011;59936;51.490;5.436;2023-03-20T04:55:44;19.00;;;9.40;;
64641;SDS011;59936;51.490;5.436;2023-03-20T04:58:10;22.70;;;11.00;;
64641;SDS011;59936;51.490;5.436;2023-03-20T05:00:36;19.90;;;12.20;;
64641;SDS011;59936;51.490;5.436;2023-03-20T05:03:02;23.40;;;11.00;;
64641;SDS011;59936;51.490;5.436;2023-03-20T05:05:28;21.10;;;11.50;;
64641;SDS011;59936;51.490;5.436;2023-03-20T05:07:54;20.50;;;10.80;;
64641;SDS011;59936;51.490;5.436;2023-03-20T05:10:21;22.90;;;11.40;;
64641;SDS011;59936;51.490;5.436;2023-03-20T05:12:47;20.80;;;10.70;;
64641;SDS011;59936;51.490;5.436;2023-03-20T05:15:13;19.50;;;10.80;;
64641;SDS011;59936;51.490;5.436;2023-03-20T05:17:38;22.50;;;10.70;;
64641;SDS011;59936;51.490;5.436;2023-03-20T05:20:04;18.50;;;9.40;;
64641;SDS011;59936;51.490;5.436;2023-03-20T05:22:31;13.70;;;8.60;;
64641;SDS011;59936;51.490;5.436;2023-03-20T05:24:57;14.50;;;9.10;;
64641;SDS011;59936;51.490;5.436;2023-03-20T05:27:23;16.70;;;8.30;;
64641;SDS011;59936;51.490;5.436;2023-03-20T05:29:48;21.30;;;10.10;;
64641;SDS011;59936;51.490;5.436;2023-03-20T05:32:14;16.50;;;9.30;;
64641;SDS011;59936;51.490;5.436;2023-03-20T05:34:40;15.50;;;8.40;;
64641;SDS011;59936;51.490;5.436;2023-03-20T05:37:06;20.50;;;10.20;;
64641;SDS011;59936;51.490;5.436;2023-03-20T05:39:32;18.60;;;10.10;;
64641;SDS011;59936;51.490;5.436;2023-03-20T05:41:58;17.90;;;9.20;;
64641;SDS011;59936;51.490;5.436;2023-03-20T05:44:23;16.70;;;8.50;;
64641;SDS011;59936;51.490;5.436;2023-03-20T05:49:15;15.45;;;8.20;;
64641;SDS011;59936;51.490;5.436;2023-03-20T05:51:41;15.60;;;9.20;;
64641;SDS011;59936;51.490;5.436;2023-03-20T05:54:07;17.60;;;9.40;;
64641;SDS011;59936;51.490;5.436;2023-03-20T05:56:33;20.70;;;9.60;;
64641;SDS011;59936;51.490;5.436;2023-03-20T05:58:58;18.10;;;8.10;;
64641;SDS011;59936;51.490;5.436;2023-03-20T06:01:24;18.50;;;9.40;;
64641;SDS011;59936;51.490;5.436;2023-03-20T06:03:50;19.70;;;9.80;;
64641;SDS011;59936;51.490;5.436;2023-03-20T06:06:16;16.40;;;7.70;;
64641;SDS011;59936;51.490;5.436;2023-03-20T06:08:42;18.50;;;8.30;;
64641;SDS011;59936;51.490;5.436;2023-03-20T06:11:08;14.10;;;7.40;;
64641;SDS011;59936;51.490;5.436;2023-03-20T06:13:34;17.10;;;8.60;;
64641;SDS011;59936;51.490;5.436;2023-03-20T06:16:00;19.00;;;8.90;;
64641;SDS011;59936;51.490;5.436;2023-03-20T06:20:53;16.30;;;8.75;;
64641;SDS011;59936;51.490;5.436;2023-03-20T06:23:20;17.20;;;8.90;;
64641;SDS011;59936;51.490;5.436;2023-03-20T06:25:47;16.80;;;8.60;;
64641;SDS011;59936;51.490;5.436;2023-03-20T06:30:38;18.85;;;8.35;;
64641;SDS011;59936;51.490;5.436;2023-03-20T06:35:30;16.70;;;8.00;;
64641;SDS011;59936;51.490;5.436;2023-03-20T06:40:23;16.00;;;7.70;;
64641;SDS011;59936;51.490;5.436;2023-03-20T06:42:49;13.20;;;6.50;;
64641;SDS011;59936;51.490;5.436;2023-03-20T06:45:15;15.10;;;7.90;;
64641;SDS011;59936;51.490;5.436;2023-03-20T06:50:06;14.65;;;7.40;;
64641;SDS011;59936;51.490;5.436;2023-03-20T06:52:33;16.00;;;7.30;;
64641;SDS011;59936;51.490;5.436;2023-03-20T06:54:59;17.50;;;8.50;;
64641;SDS011;59936;51.490;5.436;2023-03-20T06:57:25;16.60;;;7.30;;
64641;SDS011;59936;51.490;5.436;2023-03-20T06:59:51;14.60;;;8.60;;
64641;SDS011;59936;51.490;5.436;2023-03-20T07:02:16;11.40;;;7.70;;
64641;SDS011;59936;51.490;5.436;2023-03-20T07:04:42;11.90;;;6.60;;
64641;SDS011;59936;51.490;5.436;2023-03-20T07:07:08;15.00;;;8.00;;
64641;SDS011;59936;51.490;5.436;2023-03-20T07:09:34;16.40;;;7.90;;
64641;SDS011;59936;51.490;5.436;2023-03-20T07:12:00;21.80;;;9.30;;
64641;SDS011;59936;51.490;5.436;2023-03-20T07:14:26;18.60;;;8.50;;
64641;SDS011;59936;51.490;5.436;2023-03-20T07:19:18;12.50;;;6.90;;
64641;SDS011;59936;51.490;5.436;2023-03-20T07:21:44;8.70;;;6.40;;
64641;SDS011;59936;51.490;5.436;2023-03-20T07:24:09;13.10;;;7.50;;
64641;SDS011;59936;51.490;5.436;2023-03-20T07:26:35;16.70;;;8.60;;
64641;SDS011;59936;51.490;5.436;2023-03-20T07:29:01;14.10;;;7.90;;
64641;SDS011;59936;51.490;5.436;2023-03-20T07:31:27;13.70;;;6.90;;
64641;SDS011;59936;51.490;5.436;2023-03-20T07:33:54;17.20;;;7.70;;
64641;SDS011;59936;51.490;5.436;2023-03-20T07:36:20;12.80;;;6.70;;
64641;SDS011;59936;51.490;5.436;2023-03-20T07:41:11;9.70;;;6.40;;
64641;SDS011;59936;51.490;5.436;2023-03-20T07:43:37;15.40;;;7.80;;
64641;SDS011;59936;51.490;5.436;2023-03-20T07:46:03;17.70;;;7.70;;
64641;SDS011;59936;51.490;5.436;2023-03-20T07:48:31;22.30;;;8.20;;
64641;SDS011;59936;51.490;5.436;2023-03-20T07:50:57;19.50;;;8.30;;
64641;SDS011;59936;51.490;5.436;2023-03-20T07:55:48;15.40;;;6.00;;
64641;SDS011;59936;51.490;5.436;2023-03-20T08:00:40;13.80;;;6.70;;
64641;SDS011;59936;51.490;5.436;2023-03-20T08:03:05;15.90;;;8.10;;
64641;SDS011;59936;51.490;5.436;2023-03-20T08:07:57;11.50;;;6.65;;
64641;SDS011;59936;51.490;5.436;2023-03-20T08:10:23;13.50;;;7.00;;
64641;SDS011;59936;51.490;5.436;2023-03-20T08:12:49;18.10;;;6.90;;
64641;SDS011;59936;51.490;5.436;2023-03-20T08:15:15;13.20;;;6.10;;
64641;SDS011;59936;51.490;5.436;2023-03-20T08:17:42;18.20;;;7.30;;
64641;SDS011;59936;51.490;5.436;2023-03-20T08:20:08;19.80;;;7.40;;
64641;SDS011;59936;51.490;5.436;2023-03-20T08:22:35;14.90;;;7.40;;
64641;SDS011;59936;51.490;5.436;2023-03-20T08:25:01;16.20;;;7.00;;
64641;SDS011;59936;51.490;5.436;2023-03-20T08:29:52;12.70;;;6.30;;
64641;SDS011;59936;51.490;5.436;2023-03-20T08:34:44;10.35;;;4.90;;
64641;SDS011;59936;51.490;5.436;2023-03-20T08:39:35;12.70;;;5.80;;
64641;SDS011;59936;51.490;5.436;2023-03-20T08:44:27;13.65;;;5.15;;
64641;SDS011;59936;51.490;5.436;2023-03-20T08:49:18;12.75;;;6.10;;
64641;SDS011;59936;51.490;5.436;2023-03-20T08:54:10;13.45;;;5.25;;
64641;SDS011;59936;51.490;5.436;2023-03-20T08:59:01;7.40;;;3.20;;
64641;SDS011;59936;51.490;5.436;2023-03-20T09:01:27;14.00;;;6.30;;
64641;SDS011;59936;51.490;5.436;2023-03-20T09:03:53;14.30;;;6.30;;
64641;SDS011;59936;51.490;5.436;2023-03-20T09:08:45;11.80;;;6.35;;
64641;SDS011;59936;51.490;5.436;2023-03-20T09:13:36;14.35;;;5.65;;
64641;SDS011;59936;51.490;5.436;2023-03-20T09:18:28;18.60;;;6.50;;
64641;SDS011;59936;51.490;5.436;2023-03-20T09:23:20;16.05;;;5.60;;
64641;SDS011;59936;51.490;5.436;2023-03-20T09:28:11;8.80;;;4.50;;
64641;SDS011;59936;51.490;5.436;2023-03-20T09:30:37;7.00;;;4.00;;
64641;SDS011;59936;51.490;5.436;2023-03-20T09:33:03;17.90;;;5.90;;
64641;SDS011;59936;51.490;5.436;2023-03-20T09:35:29;8.10;;;3.90;;
64641;SDS011;59936;51.490;5.436;2023-03-20T09:37:55;11.20;;;5.80;;
64641;SDS011;59936;51.490;5.436;2023-03-20T09:45:36;13.80;;;5.60;;
64641;SDS011;59936;51.490;5.436;2023-03-20T09:51:06;11.80;;;4.80;;
64641;SDS011;59936;51.490;5.436;2023-03-20T09:53:46;11.20;;;5.50;;
64641;SDS011;59936;51.490;5.436;2023-03-20T09:56:16;12.80;;;6.30;;
64641;SDS011;59936;51.490;5.436;2023-03-20T09:58:49;16.00;;;4.90;;
64641;SDS011;59936;51.490;5.436;2023-03-20T10:01:19;9.50;;;5.70;;
64641;SDS011;59936;51.490;5.436;2023-03-20T10:03:50;12.30;;;5.40;;
64641;SDS011;59936;51.490;5.436;2023-03-20T10:06:20;15.00;;;5.90;;
64641;SDS011;59936;51.490;5.436;2023-03-20T10:08:46;10.90;;;6.00;;
64641;SDS011;59936;51.490;5.436;2023-03-20T10:14:11;16.90;;;6.30;;
64641;SDS011;59936;51.490;5.436;2023-03-20T10:22:23;11.90;;;5.50;;
64641;SDS011;59936;51.490;5.436;2023-03-20T10:25:05;12.80;;;5.40;;
64641;SDS011;59936;51.490;5.436;2023-03-20T10:27:33;14.00;;;5.20;;
64641;SDS011;59936;51.490;5.436;2023-03-20T10:35:59;10.70;;;5.10;;
64641;SDS011;59936;51.490;5.436;2023-03-20T10:41:08;12.30;;;5.80;;
64641;SDS011;59936;51.490;5.436;2023-03-20T10:43:44;10.40;;;5.50;;
64641;SDS011;59936;51.490;5.436;2023-03-20T10:46:16;13.60;;;5.90;;
64641;SDS011;59936;51.490;5.436;2023-03-20T10:48:48;12.50;;;6.00;;
64641;SDS011;59936;51.490;5.436;2023-03-20T10:51:17;16.70;;;6.90;;
64641;SDS011;59936;51.490;5.436;2023-03-20T10:53:48;13.50;;;5.70;;
64641;SDS011;59936;51.490;5.436;2023-03-20T10:56:28;13.40;;;6.10;;
64641;SDS011;59936;51.490;5.436;2023-03-20T10:59:07;11.90;;;5.50;;
64641;SDS011;59936;51.490;5.436;2023-03-20T11:01:42;17.10;;;5.90;;
64641;SDS011;59936;51.490;5.436;2023-03-20T11:04:07;15.40;;;6.50;;
64641;SDS011;59936;51.490;5.436;2023-03-20T11:06:37;12.40;;;5.60;;
64641;SDS011;59936;51.490;5.436;2023-03-20T11:09:19;10.90;;;5.30;;
64641;SDS011;59936;51.490;5.436;2023-03-20T11:11:50;9.50;;;4.50;;
64641;SDS011;59936;51.490;5.436;2023-03-20T11:14:21;14.70;;;5.50;;
64641;SDS011;59936;51.490;5.436;2023-03-20T11:16:52;12.10;;;4.90;;
64641;SDS011;59936;51.490;5.436;2023-03-20T11:19:20;11.00;;;4.30;;
64641;SDS011;59936;51.490;5.436;2023-03-20T11:21:51;12.90;;;5.20;;
64641;SDS011;59936;51.490;5.436;2023-03-20T11:24:52;11.60;;;5.10;;
64641;SDS011;59936;51.490;5.436;2023-03-20T11:27:15;13.70;;;5.40;;
64641;SDS011;59936;51.490;5.436;2023-03-20T11:29:50;9.60;;;4.50;;
64641;SDS011;59936;51.490;5.436;2023-03-20T11:32:33;11.40;;;5.00;;
64641;SDS011;59936;51.490;5.436;2023-03-20T11:37:49;14.90;;;6.20;;
64641;SDS011;59936;51.490;5.436;2023-03-20T11:40:24;15.10;;;5.40;;
64641;SDS011;59936;51.490;5.436;2023-03-20T11:43:03;11.80;;;5.70;;
64641;SDS011;59936;51.490;5.436;2023-03-20T11:45:36;16.50;;;6.40;;
64641;SDS011;59936;51.490;5.436;2023-03-20T11:48:02;10.70;;;4.60;;
64641;SDS011;59936;51.490;5.436;2023-03-20T11:50:36;13.30;;;5.30;;
64641;SDS011;59936;51.490;5.436;2023-03-20T11:53:20;13.10;;;5.50;;
64641;SDS011;59936;51.490;5.436;2023-03-20T11:56:51;11.80;;;5.20;;
64641;SDS011;59936;51.490;5.436;2023-03-20T11:58:57;11.80;;;4.50;;
64641;SDS011;59936;51.490;5.436;2023-03-20T12:01:28;8.90;;;5.00;;
64641;SDS011;59936;51.490;5.436;2023-03-20T12:06:56;17.80;;;6.00;;
64641;SDS011;59936;51.490;5.436;2023-03-20T12:09:34;19.40;;;6.70;;
64641;SDS011;59936;51.490;5.436;2023-03-20T12:17:19;14.30;;;5.40;;
64641;SDS011;59936;51.490;5.436;2023-03-20T12:20:01;11.40;;;5.00;;
64641;SDS011;59936;51.490;5.436;2023-03-20T12:22:35;11.10;;;5.40;;
64641;SDS011;59936;51.490;5.436;2023-03-20T12:25:17;13.90;;;6.10;;
64641;SDS011;59936;51.490;5.436;2023-03-20T12:27:55;17.80;;;5.10;;
64641;SDS011;59936;51.490;5.436;2023-03-20T12:30:35;16.20;;;5.70;;
64641;SDS011;59936;51.490;5.436;2023-03-20T12:33:28;18.80;;;7.20;;
64641;SDS011;59936;51.490;5.436;2023-03-20T12:36:01;14.50;;;6.80;;
64641;SDS011;59936;51.490;5.436;2023-03-20T12:38:29;13.90;;;5.80;;
64641;SDS011;59936;51.490;5.436;2023-03-20T12:41:00;18.70;;;6.00;;
64641;SDS011;59936;51.490;5.436;2023-03-20T12:43:34;15.10;;;5.90;;
64641;SDS011;59936;51.490;5.436;2023-03-20T12:46:18;10.20;;;5.60;;
64641;SDS011;59936;51.490;5.436;2023-03-20T12:49:01;16.30;;;6.80;;
64641;SDS011;59936;51.490;5.436;2023-03-20T12:51:46;13.90;;;6.20;;
64641;SDS011;59936;51.490;5.436;2023-03-20T12:57:30;17.90;;;6.20;;
64641;SDS011;59936;51.490;5.436;2023-03-20T13:00:13;13.80;;;5.60;;
64641;SDS011;59936;51.490;5.436;2023-03-20T13:10:56;12.40;;;5.60;;
64641;SDS011;59936;51.490;5.436;2023-03-20T13:16:27;20.60;;;6.00;;
64641;SDS011;59936;51.490;5.436;2023-03-20T13:21:45;16.00;;;5.70;;
64641;SDS011;59936;51.490;5.436;2023-03-20T13:24:17;16.20;;;5.80;;
64641;SDS011;59936;51.490;5.436;2023-03-20T13:30:00;16.40;;;6.50;;
64641;SDS011;59936;51.490;5.436;2023-03-20T13:35:30;12.70;;;5.10;;
64641;SDS011;59936;51.490;5.436;2023-03-20T13:38:21;10.90;;;4.30;;
64641;SDS011;59936;51.490;5.436;2023-03-20T13:40:54;8.20;;;4.10;;
64641;SDS011;59936;51.490;5.436;2023-03-20T13:43:58;14.50;;;4.70;;
64641;SDS011;59936;51.490;5.436;2023-03-20T13:48:51;14.90;;;5.20;;
64641;SDS011;59936;51.490;5.436;2023-03-20T14:02:19;6.00;;;3.80;;
64641;SDS011;59936;51.490;5.436;2023-03-20T14:05:00;6.30;;;2.60;;
64641;SDS011;59936;51.490;5.436;2023-03-20T14:07:41;11.90;;;3.90;;
64641;SDS011;59936;51.490;5.436;2023-03-20T14:12:49;15.60;;;4.20;;
64641;SDS011;59936;51.490;5.436;2023-03-20T14:15:19;10.60;;;4.60;;
64641;SDS011;59936;51.490;5.436;2023-03-20T14:17:47;7.30;;;3.40;;
64641;SDS011;59936;51.490;5.436;2023-03-20T14:20:28;12.80;;;4.40;;
64641;SDS011;59936;51.490;5.436;2023-03-20T14:22:57;12.70;;;4.60;;
64641;SDS011;59936;51.490;5.436;2023-03-20T14:25:23;10.50;;;3.80;;
64641;SDS011;59936;51.490;5.436;2023-03-20T14:27:52;20.20;;;5.00;;
64641;SDS011;59936;51.490;5.436;2023-03-20T14:35:31;16.80;;;4.80;;
64641;SDS011;59936;51.490;5.436;2023-03-20T14:40:46;19.10;;;5.00;;
64641;SDS011;59936;51.490;5.436;2023-03-20T14:46:04;12.30;;;4.60;;
64641;SDS011;59936;51.490;5.436;2023-03-20T14:53:43;12.60;;;4.90;;
64641;SDS011;59936;51.490;5.436;2023-03-20T14:56:24;14.80;;;4.60;;
64641;SDS011;59936;51.490;5.436;2023-03-20T14:59:00;11.90;;;5.60;;
64641;SDS011;59936;51.490;5.436;2023-03-20T15:04:07;10.10;;;3.40;;
64641;SDS011;59936;51.490;5.436;2023-03-20T15:06:48;14.30;;;4.00;;
64641;SDS011;59936;51.490;5.436;2023-03-20T15:09:20;15.30;;;4.20;;
64641;SDS011;59936;51.490;5.436;2023-03-20T15:11:49;11.50;;;4.00;;
64641;SDS011;59936;51.490;5.436;2023-03-20T15:14:24;9.80;;;4.50;;
64641;SDS011;59936;51.490;5.436;2023-03-20T15:16:59;11.60;;;3.90;;
64641;SDS011;59936;51.490;5.436;2023-03-20T15:19:27;13.60;;;3.90;;
64641;SDS011;59936;51.490;5.436;2023-03-20T15:21:53;5.70;;;3.00;;
64641;SDS011;59936;51.490;5.436;2023-03-20T15:24:21;13.20;;;3.90;;
64641;SDS011;59936;51.490;5.436;2023-03-20T15:26:51;7.20;;;3.20;;
64641;SDS011;59936;51.490;5.436;2023-03-20T15:29:19;13.50;;;4.20;;
64641;SDS011;59936;51.490;5.436;2023-03-20T15:31:46;6.50;;;3.40;;
64641;SDS011;59936;51.490;5.436;2023-03-20T15:34:22;14.90;;;3.90;;
64641;SDS011;59936;51.490;5.436;2023-03-20T15:36:52;8.40;;;3.70;;
64641;SDS011;59936;51.490;5.436;2023-03-20T15:39:22;9.60;;;3.10;;
64641;SDS011;59936;51.490;5.436;2023-03-20T15:42:00;12.80;;;4.40;;
64641;SDS011;59936;51.490;5.436;2023-03-20T15:44:37;12.90;;;3.90;;
64641;SDS011;59936;51.490;5.436;2023-03-20T15:49:57;8.10;;;3.40;;
64641;SDS011;59936;51.490;5.436;2023-03-20T15:54:59;7.40;;;3.40;;
64641;SDS011;59936;51.490;5.436;2023-03-20T15:57:30;8.10;;;4.10;;
64641;SDS011;59936;51.490;5.436;2023-03-20T15:59:57;9.10;;;3.80;;
64641;SDS011;59936;51.490;5.436;2023-03-20T16:02:23;11.00;;;4.10;;
64641;SDS011;59936;51.490;5.436;2023-03-20T16:04:51;11.50;;;4.30;;
64641;SDS011;59936;51.490;5.436;2023-03-20T16:07:22;13.40;;;4.20;;
64641;SDS011;59936;51.490;5.436;2023-03-20T16:09:52;10.00;;;4.30;;
64641;SDS011;59936;51.490;5.436;2023-03-20T16:12:18;10.90;;;3.80;;
64641;SDS011;59936;51.490;5.436;2023-03-20T16:14:45;13.90;;;4.20;;
64641;SDS011;59936;51.490;5.436;2023-03-20T16:17:13;11.10;;;4.10;;
64641;SDS011;59936;51.490;5.436;2023-03-20T16:19:41;7.60;;;3.60;;
64641;SDS011;59936;51.490;5.436;2023-03-20T16:24:35;11.00;;;4.00;;
64641;SDS011;59936;51.490;5.436;2023-03-20T16:27:05;9.50;;;4.00;;
64641;SDS011;59936;51.490;5.436;2023-03-20T16:29:32;10.70;;;4.40;;
64641;SDS011;59936;51.490;5.436;2023-03-20T16:34:33;11.50;;;4.40;;
64641;SDS011;59936;51.490;5.436;2023-03-20T16:37:06;8.60;;;4.00;;
64641;SDS011;59936;51.490;5.436;2023-03-20T16:39:47;9.80;;;4.30;;
64641;SDS011;59936;51.490;5.436;2023-03-20T16:44:56;10.80;;;4.70;;
64641;SDS011;59936;51.490;5.436;2023-03-20T16:47:32;10.80;;;5.30;;
64641;SDS011;59936;51.490;5.436;2023-03-20T16:52:35;21.00;;;7.80;;
64641;SDS011;59936;51.490;5.436;2023-03-20T16:55:04;21.10;;;8.80;;
64641;SDS011;59936;51.490;5.436;2023-03-20T16:57:36;19.40;;;8.20;;
64641;SDS011;59936;51.490;5.436;2023-03-20T17:02:37;24.20;;;12.00;;
64641;SDS011;59936;51.490;5.436;2023-03-20T17:05:05;11.80;;;6.10;;
64641;SDS011;59936;51.490;5.436;2023-03-20T17:07:37;16.50;;;6.60;;
64641;SDS011;59936;51.490;5.436;2023-03-20T17:12:42;17.60;;;5.80;;
64641;SDS011;59936;51.490;5.436;2023-03-20T17:15:17;8.70;;;5.00;;
64641;SDS011;59936;51.490;5.436;2023-03-20T17:17:45;13.30;;;6.30;;
64641;SDS011;59936;51.490;5.436;2023-03-20T17:22:42;14.50;;;5.30;;
64641;SDS011;59936;51.490;5.436;2023-03-20T17:27:34;15.30;;;5.30;;
64641;SDS011;59936;51.490;5.436;2023-03-20T17:32:26;14.70;;;6.20;;
64641;SDS011;59936;51.490;5.436;2023-03-20T17:37:21;12.40;;;4.35;;
64641;SDS011;59936;51.490;5.436;2023-03-20T17:39:49;14.00;;;5.70;;
64641;SDS011;59936;51.490;5.436;2023-03-20T17:44:45;17.90;;;6.60;;
64641;SDS011;59936;51.490;5.436;2023-03-20T17:47:13;17.30;;;6.10;;
64641;SDS011;59936;51.490;5.436;2023-03-20T17:49:41;14.80;;;6.70;;
64641;SDS011;59936;51.490;5.436;2023-03-20T17:52:14;11.60;;;5.90;;
64641;SDS011;59936;51.490;5.436;2023-03-20T17:54:42;13.50;;;5.80;;
64641;SDS011;59936;51.490;5.436;2023-03-20T17:57:11;15.10;;;6.30;;
64641;SDS011;59936;51.490;5.436;2023-03-20T17:59:42;12.90;;;5.80;;
64641;SDS011;59936;51.490;5.436;2023-03-20T18:04:34;18.00;;;6.20;;
64641;SDS011;59936;51.490;5.436;2023-03-20T18:09:26;12.20;;;5.80;;
64641;SDS011;59936;51.490;5.436;2023-03-20T18:14:17;11.40;;;5.05;;
64641;SDS011;59936;51.490;5.436;2023-03-20T18:19:27;13.85;;;6.55;;
64641;SDS011;59936;51.490;5.436;2023-03-20T18:21:54;15.90;;;6.90;;
64641;SDS011;59936;51.490;5.436;2023-03-20T18:24:21;11.40;;;5.40;;
64641;SDS011;59936;51.490;5.436;2023-03-20T18:26:48;14.90;;;6.70;;
64641;SDS011;59936;51.490;5.436;2023-03-20T18:29:15;20.10;;;6.60;;
64641;SDS011;59936;51.490;5.436;2023-03-20T18:34:07;13.20;;;6.50;;
64641;SDS011;59936;51.490;5.436;2023-03-20T18:38:58;10.50;;;5.50;;
64641;SDS011;59936;51.490;5.436;2023-03-20T18:43:50;14.80;;;6.25;;
64641;SDS011;59936;51.490;5.436;2023-03-20T18:46:20;16.80;;;6.70;;
64641;SDS011;59936;51.490;5.436;2023-03-20T18:48:47;20.10;;;6.60;;
64641;SDS011;59936;51.490;5.436;2023-03-20T18:51:14;15.80;;;6.80;;
64641;SDS011;59936;51.490;5.436;2023-03-20T18:56:12;13.60;;;6.60;;
64641;SDS011;59936;51.490;5.436;2023-03-20T18:58:43;11.90;;;5.90;;
64641;SDS011;59936;51.490;5.436;2023-03-20T19:01:10;20.20;;;7.50;;
64641;SDS011;59936;51.490;5.436;2023-03-20T19:03:36;19.70;;;7.20;;